Terminal Aerodrome Forecast
Issued by NWS Pocatello, ID

Home | Current Version | Previous Version | Text Only | Print | Product List | Glossary On
Versions: 1 2 3 4 5 6 7 8 9 10 11 12 13 14 15 16 17 18 19 20 21 22 23 24 25 26 27
000
FTUS45 KPIH 102330
TAFIDA
TAF
KIDA 102330Z 1100/1124 36005KT P6SM FEW110 SCT200
     FM110500 04005KT 4SM BR SCT004
     FM111300 03005KT 4SM BR OVC001
     FM111700 01005KT P6SM SCT002=

USA.gov is the U.S. government's official web portal to all federal, state and local government web resources and services.